sensor_id;sensor_type;location;lat;lon;timestamp;temperature;humidity
53776;DHT22;44276;49.534;6.378;2024-01-30T00:01:09;1.30;99.90
53776;DHT22;44276;49.534;6.378;2024-01-30T00:03:38;1.20;99.90
53776;DHT22;44276;49.534;6.378;2024-01-30T00:06:08;1.10;99.90
53776;DHT22;44276;49.534;6.378;2024-01-30T00:08:36;1.00;99.90
53776;DHT22;44276;49.534;6.378;2024-01-30T00:11:04;0.90;99.90
53776;DHT22;44276;49.534;6.378;2024-01-30T00:13:33;0.80;99.90
53776;DHT22;44276;49.534;6.378;2024-01-30T00:16:01;0.80;99.90
53776;DHT22;44276;49.534;6.378;2024-01-30T00:18:30;0.80;99.90
53776;DHT22;44276;49.534;6.378;2024-01-30T00:20:59;0.70;99.90
53776;DHT22;44276;49.534;6.378;2024-01-30T00:23:28;0.80;99.90
53776;DHT22;44276;49.534;6.378;2024-01-30T00:25:56;0.70;99.90
53776;DHT22;44276;49.534;6.378;2024-01-30T00:28:25;0.60;99.90
53776;DHT22;44276;49.534;6.378;2024-01-30T00:30:53;0.50;99.90
53776;DHT22;44276;49.534;6.378;2024-01-30T00:33:21;0.30;99.90
53776;DHT22;44276;49.534;6.378;2024-01-30T00:35:50;0.30;99.90
53776;DHT22;44276;49.534;6.378;2024-01-30T00:38:18;0.30;99.90
53776;DHT22;44276;49.534;6.378;2024-01-30T00:40:47;0.30;99.90
53776;DHT22;44276;49.534;6.378;2024-01-30T00:43:16;0.30;99.90
53776;DHT22;44276;49.534;6.378;2024-01-30T00:45:44;0.20;99.90
53776;DHT22;44276;49.534;6.378;2024-01-30T00:48:13;0.20;99.90
53776;DHT22;44276;49.534;6.378;2024-01-30T00:50:41;0.20;99.90
53776;DHT22;44276;49.534;6.378;2024-01-30T00:53:10;0.20;99.90
53776;DHT22;44276;49.534;6.378;2024-01-30T00:55:38;0.20;99.90
53776;DHT22;44276;49.534;6.378;2024-01-30T00:58:08;0.20;99.90
53776;DHT22;44276;49.534;6.378;2024-01-30T01:00:36;0.10;99.90
53776;DHT22;44276;49.534;6.378;2024-01-30T01:03:04;0.10;99.90
53776;DHT22;44276;49.534;6.378;2024-01-30T01:05:33;0.00;99.90
53776;DHT22;44276;49.534;6.378;2024-01-30T01:08:01;0.10;99.90
53776;DHT22;44276;49.534;6.378;2024-01-30T01:10:29;0.20;99.90
53776;DHT22;44276;49.534;6.378;2024-01-30T01:12:58;0.20;99.90
53776;DHT22;44276;49.534;6.378;2024-01-30T01:15:27;0.20;99.90
53776;DHT22;44276;49.534;6.378;2024-01-30T01:17:56;0.10;99.90
53776;DHT22;44276;49.534;6.378;2024-01-30T01:20:25;0.10;99.90
53776;DHT22;44276;49.534;6.378;2024-01-30T01:22:54;0.00;99.90
53776;DHT22;44276;49.534;6.378;2024-01-30T01:25:24;0.00;99.90
53776;DHT22;44276;49.534;6.378;2024-01-30T01:27:52;0.00;99.90
53776;DHT22;44276;49.534;6.378;2024-01-30T01:30:21;0.00;99.90
53776;DHT22;44276;49.534;6.378;2024-01-30T01:32:54;0.10;99.90
53776;DHT22;44276;49.534;6.378;2024-01-30T01:35:24;0.10;99.90
53776;DHT22;44276;49.534;6.378;2024-01-30T01:37:53;0.20;99.90
53776;DHT22;44276;49.534;6.378;2024-01-30T01:40:23;0.10;99.90
53776;DHT22;44276;49.534;6.378;2024-01-30T01:42:53;0.10;99.90
53776;DHT22;44276;49.534;6.378;2024-01-30T01:45:22;0.10;99.90
53776;DHT22;44276;49.534;6.378;2024-01-30T01:47:51;0.10;99.90
53776;DHT22;44276;49.534;6.378;2024-01-30T01:50:22;0.10;99.90
53776;DHT22;44276;49.534;6.378;2024-01-30T01:52:52;0.00;99.90
53776;DHT22;44276;49.534;6.378;2024-01-30T01:55:21;-0.10;99.90
53776;DHT22;44276;49.534;6.378;2024-01-30T01:57:53;-0.20;99.90
53776;DHT22;44276;49.534;6.378;2024-01-30T02:00:22;-0.40;99.90
53776;DHT22;44276;49.534;6.378;2024-01-30T02:02:52;-0.40;99.90
53776;DHT22;44276;49.534;6.378;2024-01-30T02:05:23;-0.40;99.90
53776;DHT22;44276;49.534;6.378;2024-01-30T02:07:54;-0.50;99.90
53776;DHT22;44276;49.534;6.378;2024-01-30T02:10:22;-0.50;99.90
53776;DHT22;44276;49.534;6.378;2024-01-30T02:12:51;-0.50;99.90
53776;DHT22;44276;49.534;6.378;2024-01-30T02:15:19;-0.40;99.90
53776;DHT22;44276;49.534;6.378;2024-01-30T02:17:47;-0.20;99.90
53776;DHT22;44276;49.534;6.378;2024-01-30T02:20:15;-0.10;99.90
53776;DHT22;44276;49.534;6.378;2024-01-30T02:22:46;0.00;99.90
53776;DHT22;44276;49.534;6.378;2024-01-30T02:25:16;0.00;99.90
53776;DHT22;44276;49.534;6.378;2024-01-30T02:27:44;-0.10;99.90
53776;DHT22;44276;49.534;6.378;2024-01-30T02:30:13;-0.10;99.90
53776;DHT22;44276;49.534;6.378;2024-01-30T02:32:41;-0.30;99.90
53776;DHT22;44276;49.534;6.378;2024-01-30T02:35:09;-0.40;99.90
53776;DHT22;44276;49.534;6.378;2024-01-30T02:37:37;-0.50;99.90
53776;DHT22;44276;49.534;6.378;2024-01-30T02:40:08;-0.60;99.90
53776;DHT22;44276;49.534;6.378;2024-01-30T02:42:36;-0.60;99.90
53776;DHT22;44276;49.534;6.378;2024-01-30T02:45:05;-0.60;99.90
53776;DHT22;44276;49.534;6.378;2024-01-30T02:47:34;-0.50;99.90
53776;DHT22;44276;49.534;6.378;2024-01-30T02:50:03;-0.40;99.90
53776;DHT22;44276;49.534;6.378;2024-01-30T02:52:32;-0.40;99.90
53776;DHT22;44276;49.534;6.378;2024-01-30T02:55:00;-0.30;99.90
53776;DHT22;44276;49.534;6.378;2024-01-30T02:57:30;-0.30;99.90
53776;DHT22;44276;49.534;6.378;2024-01-30T02:59:59;-0.30;99.90
53776;DHT22;44276;49.534;6.378;2024-01-30T03:02:28;-0.20;99.90
53776;DHT22;44276;49.534;6.378;2024-01-30T03:04:56;-0.20;99.90
53776;DHT22;44276;49.534;6.378;2024-01-30T03:07:24;-0.20;99.90
53776;DHT22;44276;49.534;6.378;2024-01-30T03:09:53;-0.20;99.90
53776;DHT22;44276;49.534;6.378;2024-01-30T03:12:22;-0.20;99.90
53776;DHT22;44276;49.534;6.378;2024-01-30T03:14:52;-0.30;99.90
53776;DHT22;44276;49.534;6.378;2024-01-30T03:17:20;-0.30;99.90
53776;DHT22;44276;49.534;6.378;2024-01-30T03:19:48;-0.30;99.90
53776;DHT22;44276;49.534;6.378;2024-01-30T03:22:16;-0.20;99.90
53776;DHT22;44276;49.534;6.378;2024-01-30T03:24:45;-0.20;99.90
53776;DHT22;44276;49.534;6.378;2024-01-30T03:27:13;-0.20;99.90
53776;DHT22;44276;49.534;6.378;2024-01-30T03:29:41;-0.20;99.90
53776;DHT22;44276;49.534;6.378;2024-01-30T03:32:11;-0.10;99.90
53776;DHT22;44276;49.534;6.378;2024-01-30T03:34:39;-0.10;99.90
53776;DHT22;44276;49.534;6.378;2024-01-30T03:37:08;-0.10;99.90
53776;DHT22;44276;49.534;6.378;2024-01-30T03:39:36;-0.10;99.90
53776;DHT22;44276;49.534;6.378;2024-01-30T03:42:04;-0.20;99.90
53776;DHT22;44276;49.534;6.378;2024-01-30T03:44:33;-0.20;99.90
53776;DHT22;44276;49.534;6.378;2024-01-30T03:47:01;0.00;99.90
53776;DHT22;44276;49.534;6.378;2024-01-30T03:49:30;0.10;99.90
53776;DHT22;44276;49.534;6.378;2024-01-30T03:51:59;0.00;99.90
53776;DHT22;44276;49.534;6.378;2024-01-30T03:54:27;-0.10;99.90
53776;DHT22;44276;49.534;6.378;2024-01-30T03:56:55;-0.20;99.90
53776;DHT22;44276;49.534;6.378;2024-01-30T03:59:23;-0.20;99.90
53776;DHT22;44276;49.534;6.378;2024-01-30T04:01:52;-0.30;99.90
53776;DHT22;44276;49.534;6.378;2024-01-30T04:04:21;-0.30;99.90
53776;DHT22;44276;49.534;6.378;2024-01-30T04:06:51;-0.30;99.90
53776;DHT22;44276;49.534;6.378;2024-01-30T04:09:19;-0.30;99.90
53776;DHT22;44276;49.534;6.378;2024-01-30T04:11:47;-0.40;99.90
53776;DHT22;44276;49.534;6.378;2024-01-30T04:14:16;-0.40;99.90
53776;DHT22;44276;49.534;6.378;2024-01-30T04:16:44;-0.40;99.90
53776;DHT22;44276;49.534;6.378;2024-01-30T04:19:12;-0.30;99.90
53776;DHT22;44276;49.534;6.378;2024-01-30T04:21:40;-0.30;99.90
53776;DHT22;44276;49.534;6.378;2024-01-30T04:24:10;-0.40;99.90
53776;DHT22;44276;49.534;6.378;2024-01-30T04:26:38;-0.40;99.90
53776;DHT22;44276;49.534;6.378;2024-01-30T04:29:06;-0.40;99.90
53776;DHT22;44276;49.534;6.378;2024-01-30T04:31:36;-0.50;99.90
53776;DHT22;44276;49.534;6.378;2024-01-30T04:34:04;-0.50;99.90
53776;DHT22;44276;49.534;6.378;2024-01-30T04:36:32;-0.50;99.90
53776;DHT22;44276;49.534;6.378;2024-01-30T04:39:01;-0.40;99.90
53776;DHT22;44276;49.534;6.378;2024-01-30T04:41:30;-0.40;99.90
53776;DHT22;44276;49.534;6.378;2024-01-30T04:43:59;-0.40;99.90
53776;DHT22;44276;49.534;6.378;2024-01-30T04:46:27;-0.50;99.90
53776;DHT22;44276;49.534;6.378;2024-01-30T04:48:55;-0.50;99.90
53776;DHT22;44276;49.534;6.378;2024-01-30T04:51:24;-0.50;99.90
53776;DHT22;44276;49.534;6.378;2024-01-30T04:53:52;-0.50;99.90
53776;DHT22;44276;49.534;6.378;2024-01-30T04:56:20;-0.60;99.90
53776;DHT22;44276;49.534;6.378;2024-01-30T04:58:50;-0.60;99.90
53776;DHT22;44276;49.534;6.378;2024-01-30T05:01:18;-0.50;99.90
53776;DHT22;44276;49.534;6.378;2024-01-30T05:03:47;-0.50;99.90
53776;DHT22;44276;49.534;6.378;2024-01-30T05:06:24;-0.40;99.90
53776;DHT22;44276;49.534;6.378;2024-01-30T05:08:53;-0.50;99.90
53776;DHT22;44276;49.534;6.378;2024-01-30T05:11:21;-0.50;99.90
53776;DHT22;44276;49.534;6.378;2024-01-30T05:13:51;-0.50;99.90
53776;DHT22;44276;49.534;6.378;2024-01-30T05:16:19;-0.40;99.90
53776;DHT22;44276;49.534;6.378;2024-01-30T05:18:47;-0.40;99.90
53776;DHT22;44276;49.534;6.378;2024-01-30T05:21:15;-0.40;99.90
53776;DHT22;44276;49.534;6.378;2024-01-30T05:23:44;-0.40;99.90
53776;DHT22;44276;49.534;6.378;2024-01-30T05:26:12;-0.50;99.90
53776;DHT22;44276;49.534;6.378;2024-01-30T05:28:40;-0.50;99.90
53776;DHT22;44276;49.534;6.378;2024-01-30T05:31:10;-0.40;99.90
53776;DHT22;44276;49.534;6.378;2024-01-30T05:33:38;-0.40;99.90
53776;DHT22;44276;49.534;6.378;2024-01-30T05:36:07;-0.40;99.90
53776;DHT22;44276;49.534;6.378;2024-01-30T05:38:36;-0.50;99.90
53776;DHT22;44276;49.534;6.378;2024-01-30T05:41:04;-0.60;99.90
53776;DHT22;44276;49.534;6.378;2024-01-30T05:43:32;-0.60;99.90
53776;DHT22;44276;49.534;6.378;2024-01-30T05:46:01;-0.60;99.90
53776;DHT22;44276;49.534;6.378;2024-01-30T05:48:30;-0.60;99.90
53776;DHT22;44276;49.534;6.378;2024-01-30T05:50:59;-0.60;99.90
53776;DHT22;44276;49.534;6.378;2024-01-30T05:53:27;-0.50;99.90
53776;DHT22;44276;49.534;6.378;2024-01-30T05:55:56;-0.50;99.90
53776;DHT22;44276;49.534;6.378;2024-01-30T05:58:24;-0.40;99.90
53776;DHT22;44276;49.534;6.378;2024-01-30T06:00:52;-0.30;99.90
53776;DHT22;44276;49.534;6.378;2024-01-30T06:03:22;-0.10;99.90
53776;DHT22;44276;49.534;6.378;2024-01-30T06:05:51;0.00;99.90
53776;DHT22;44276;49.534;6.378;2024-01-30T06:08:20;0.00;99.90
53776;DHT22;44276;49.534;6.378;2024-01-30T06:10:48;0.00;99.90
53776;DHT22;44276;49.534;6.378;2024-01-30T06:13:17;0.10;99.90
53776;DHT22;44276;49.534;6.378;2024-01-30T06:15:45;0.00;99.90
53776;DHT22;44276;49.534;6.378;2024-01-30T06:18:14;0.10;99.90
53776;DHT22;44276;49.534;6.378;2024-01-30T06:20:42;0.00;99.90
53776;DHT22;44276;49.534;6.378;2024-01-30T06:23:12;0.10;99.90
53776;DHT22;44276;49.534;6.378;2024-01-30T06:25:41;0.10;99.90
53776;DHT22;44276;49.534;6.378;2024-01-30T06:28:09;0.10;99.90
53776;DHT22;44276;49.534;6.378;2024-01-30T06:30:37;0.20;99.90
53776;DHT22;44276;49.534;6.378;2024-01-30T06:33:05;0.20;99.90
53776;DHT22;44276;49.534;6.378;2024-01-30T06:35:34;0.20;99.90
53776;DHT22;44276;49.534;6.378;2024-01-30T06:38:12;0.20;99.90
53776;DHT22;44276;49.534;6.378;2024-01-30T06:40:42;0.20;99.90
53776;DHT22;44276;49.534;6.378;2024-01-30T06:43:10;0.30;99.90
53776;DHT22;44276;49.534;6.378;2024-01-30T06:45:39;0.30;99.90
53776;DHT22;44276;49.534;6.378;2024-01-30T06:48:07;0.30;99.90
53776;DHT22;44276;49.534;6.378;2024-01-30T06:50:36;0.40;99.90
53776;DHT22;44276;49.534;6.378;2024-01-30T06:53:04;0.50;99.90
53776;DHT22;44276;49.534;6.378;2024-01-30T06:55:34;0.70;99.90
53776;DHT22;44276;49.534;6.378;2024-01-30T06:58:02;0.80;99.90
53776;DHT22;44276;49.534;6.378;2024-01-30T07:00:31;0.70;99.90
53776;DHT22;44276;49.534;6.378;2024-01-30T07:02:59;0.80;99.90
53776;DHT22;44276;49.534;6.378;2024-01-30T07:05:27;0.80;99.90
53776;DHT22;44276;49.534;6.378;2024-01-30T07:07:55;0.80;99.90
53776;DHT22;44276;49.534;6.378;2024-01-30T07:10:25;0.80;99.90
53776;DHT22;44276;49.534;6.378;2024-01-30T07:12:54;0.80;99.90
53776;DHT22;44276;49.534;6.378;2024-01-30T07:15:23;0.80;99.90
53776;DHT22;44276;49.534;6.378;2024-01-30T07:17:51;0.80;99.90
53776;DHT22;44276;49.534;6.378;2024-01-30T07:20:19;0.80;99.90
53776;DHT22;44276;49.534;6.378;2024-01-30T07:22:48;0.80;99.90
53776;DHT22;44276;49.534;6.378;2024-01-30T07:25:16;0.80;99.90
53776;DHT22;44276;49.534;6.378;2024-01-30T07:27:44;0.90;99.90
53776;DHT22;44276;49.534;6.378;2024-01-30T07:30:14;1.00;99.90
53776;DHT22;44276;49.534;6.378;2024-01-30T07:32:44;1.00;99.90
53776;DHT22;44276;49.534;6.378;2024-01-30T07:35:12;1.10;99.90
53776;DHT22;44276;49.534;6.378;2024-01-30T07:37:41;1.10;99.90
53776;DHT22;44276;49.534;6.378;2024-01-30T07:40:09;1.10;99.90
53776;DHT22;44276;49.534;6.378;2024-01-30T07:42:38;1.10;99.90
53776;DHT22;44276;49.534;6.378;2024-01-30T07:45:07;1.20;99.90
53776;DHT22;44276;49.534;6.378;2024-01-30T07:47:37;1.20;99.90
53776;DHT22;44276;49.534;6.378;2024-01-30T07:50:07;1.30;99.90
53776;DHT22;44276;49.534;6.378;2024-01-30T07:52:36;1.40;99.90
53776;DHT22;44276;49.534;6.378;2024-01-30T07:55:06;1.50;99.90
53776;DHT22;44276;49.534;6.378;2024-01-30T07:57:35;1.50;99.90
53776;DHT22;44276;49.534;6.378;2024-01-30T08:00:07;1.60;99.90
53776;DHT22;44276;49.534;6.378;2024-01-30T08:02:35;1.60;99.90
53776;DHT22;44276;49.534;6.378;2024-01-30T08:05:05;1.80;99.90
53776;DHT22;44276;49.534;6.378;2024-01-30T08:07:34;1.80;99.90
53776;DHT22;44276;49.534;6.378;2024-01-30T08:10:02;2.10;99.90
53776;DHT22;44276;49.534;6.378;2024-01-30T08:12:30;2.20;99.90
53776;DHT22;44276;49.534;6.378;2024-01-30T08:14:59;2.50;99.90
53776;DHT22;44276;49.534;6.378;2024-01-30T08:17:27;2.70;99.90
53776;DHT22;44276;49.534;6.378;2024-01-30T08:19:56;2.80;99.90
53776;DHT22;44276;49.534;6.378;2024-01-30T08:22:26;3.00;99.90
53776;DHT22;44276;49.534;6.378;2024-01-30T08:24:54;3.10;99.90
53776;DHT22;44276;49.534;6.378;2024-01-30T08:27:22;3.20;99.90
53776;DHT22;44276;49.534;6.378;2024-01-30T08:29:50;3.30;99.90
53776;DHT22;44276;49.534;6.378;2024-01-30T08:32:19;3.30;99.90
53776;DHT22;44276;49.534;6.378;2024-01-30T08:34:47;3.30;99.90
53776;DHT22;44276;49.534;6.378;2024-01-30T08:37:15;3.40;99.90
53776;DHT22;44276;49.534;6.378;2024-01-30T08:39:45;3.50;99.90
53776;DHT22;44276;49.534;6.378;2024-01-30T08:42:14;3.50;99.90
53776;DHT22;44276;49.534;6.378;2024-01-30T08:44:42;3.70;99.90
53776;DHT22;44276;49.534;6.378;2024-01-30T08:47:10;3.90;99.90
53776;DHT22;44276;49.534;6.378;2024-01-30T08:49:39;4.10;99.90
53776;DHT22;44276;49.534;6.378;2024-01-30T08:52:07;4.30;99.90
53776;DHT22;44276;49.534;6.378;2024-01-30T08:54:35;4.60;99.90
53776;DHT22;44276;49.534;6.378;2024-01-30T08:57:05;4.80;99.90
53776;DHT22;44276;49.534;6.378;2024-01-30T08:59:33;5.10;99.90
53776;DHT22;44276;49.534;6.378;2024-01-30T09:02:02;5.30;99.90
53776;DHT22;44276;49.534;6.378;2024-01-30T09:04:38;5.40;99.90
53776;DHT22;44276;49.534;6.378;2024-01-30T09:07:09;5.60;99.90
53776;DHT22;44276;49.534;6.378;2024-01-30T09:09:38;5.60;99.90
53776;DHT22;44276;49.534;6.378;2024-01-30T09:12:09;5.70;99.90
53776;DHT22;44276;49.534;6.378;2024-01-30T09:14:39;5.60;99.90
53776;DHT22;44276;49.534;6.378;2024-01-30T09:17:08;5.70;99.90
53776;DHT22;44276;49.534;6.378;2024-01-30T09:19:36;5.70;99.90
53776;DHT22;44276;49.534;6.378;2024-01-30T09:22:05;5.80;99.90
53776;DHT22;44276;49.534;6.378;2024-01-30T09:24:33;5.90;99.90
53776;DHT22;44276;49.534;6.378;2024-01-30T09:27:02;6.00;99.90
53776;DHT22;44276;49.534;6.378;2024-01-30T09:29:31;6.10;99.90
53776;DHT22;44276;49.534;6.378;2024-01-30T09:32:01;6.10;99.90
53776;DHT22;44276;49.534;6.378;2024-01-30T09:34:29;6.10;99.90
53776;DHT22;44276;49.534;6.378;2024-01-30T09:36:58;6.20;99.90
53776;DHT22;44276;49.534;6.378;2024-01-30T09:39:27;6.30;99.90
53776;DHT22;44276;49.534;6.378;2024-01-30T09:42:00;6.30;99.90
53776;DHT22;44276;49.534;6.378;2024-01-30T09:44:35;6.50;99.90
53776;DHT22;44276;49.534;6.378;2024-01-30T09:47:06;6.60;99.90
53776;DHT22;44276;49.534;6.378;2024-01-30T09:49:34;6.70;99.90
53776;DHT22;44276;49.534;6.378;2024-01-30T09:52:05;6.80;99.90
53776;DHT22;44276;49.534;6.378;2024-01-30T09:54:35;7.00;99.90
53776;DHT22;44276;49.534;6.378;2024-01-30T09:57:04;7.40;99.90
53776;DHT22;44276;49.534;6.378;2024-01-30T09:59:35;7.70;99.90
53776;DHT22;44276;49.534;6.378;2024-01-30T10:02:03;7.90;99.90
53776;DHT22;44276;49.534;6.378;2024-01-30T10:04:32;8.10;99.90
53776;DHT22;44276;49.534;6.378;2024-01-30T10:07:01;8.40;99.90
53776;DHT22;44276;49.534;6.378;2024-01-30T10:09:32;8.60;99.90
53776;DHT22;44276;49.534;6.378;2024-01-30T10:12:02;8.80;99.90
53776;DHT22;44276;49.534;6.378;2024-01-30T10:14:31;8.80;99.90
53776;DHT22;44276;49.534;6.378;2024-01-30T10:17:01;8.80;99.90
53776;DHT22;44276;49.534;6.378;2024-01-30T10:19:37;8.80;99.90
53776;DHT22;44276;49.534;6.378;2024-01-30T10:22:06;8.90;99.90
53776;DHT22;44276;49.534;6.378;2024-01-30T10:24:36;9.00;99.90
53776;DHT22;44276;49.534;6.378;2024-01-30T10:27:06;9.10;99.90
53776;DHT22;44276;49.534;6.378;2024-01-30T10:29:34;9.10;99.90
53776;DHT22;44276;49.534;6.378;2024-01-30T10:32:05;9.10;99.90
53776;DHT22;44276;49.534;6.378;2024-01-30T10:34:34;9.20;99.90
53776;DHT22;44276;49.534;6.378;2024-01-30T10:37:07;9.20;99.90
53776;DHT22;44276;49.534;6.378;2024-01-30T10:39:40;9.50;99.90
53776;DHT22;44276;49.534;6.378;2024-01-30T10:42:11;9.70;99.90
53776;DHT22;44276;49.534;6.378;2024-01-30T10:44:48;10.00;99.90
53776;DHT22;44276;49.534;6.378;2024-01-30T10:47:28;10.30;99.90
53776;DHT22;44276;49.534;6.378;2024-01-30T10:49:57;10.50;99.90
53776;DHT22;44276;49.534;6.378;2024-01-30T10:52:26;10.60;99.90
53776;DHT22;44276;49.534;6.378;2024-01-30T10:54:56;10.70;99.90
53776;DHT22;44276;49.534;6.378;2024-01-30T10:57:25;10.90;99.90
53776;DHT22;44276;49.534;6.378;2024-01-30T10:59:58;11.00;99.90
53776;DHT22;44276;49.534;6.378;2024-01-30T11:02:30;10.90;99.90
53776;DHT22;44276;49.534;6.378;2024-01-30T11:04:59;10.90;99.90
53776;DHT22;44276;49.534;6.378;2024-01-30T11:07:29;10.70;99.90
53776;DHT22;44276;49.534;6.378;2024-01-30T11:10:01;10.70;99.90
53776;DHT22;44276;49.534;6.378;2024-01-30T11:12:32;10.60;99.90
53776;DHT22;44276;49.534;6.378;2024-01-30T11:15:03;10.40;99.90
53776;DHT22;44276;49.534;6.378;2024-01-30T11:17:50;10.30;99.90
53776;DHT22;44276;49.534;6.378;2024-01-30T11:20:21;10.10;99.90
53776;DHT22;44276;49.534;6.378;2024-01-30T11:22:52;10.10;99.90
53776;DHT22;44276;49.534;6.378;2024-01-30T11:25:21;10.00;99.90
53776;DHT22;44276;49.534;6.378;2024-01-30T11:27:52;9.90;99.90
53776;DHT22;44276;49.534;6.378;2024-01-30T11:30:23;9.90;99.90
53776;DHT22;44276;49.534;6.378;2024-01-30T11:33:01;9.80;99.90
53776;DHT22;44276;49.534;6.378;2024-01-30T11:35:34;9.90;99.90
53776;DHT22;44276;49.534;6.378;2024-01-30T11:38:03;9.80;99.90
53776;DHT22;44276;49.534;6.378;2024-01-30T11:40:33;9.80;99.90
53776;DHT22;44276;49.534;6.378;2024-01-30T11:43:04;9.80;99.90
53776;DHT22;44276;49.534;6.378;2024-01-30T11:45:37;9.70;99.90
53776;DHT22;44276;49.534;6.378;2024-01-30T11:48:08;9.80;99.90
53776;DHT22;44276;49.534;6.378;2024-01-30T11:50:38;9.90;99.90
53776;DHT22;44276;49.534;6.378;2024-01-30T11:53:08;9.90;99.90
53776;DHT22;44276;49.534;6.378;2024-01-30T11:55:37;9.90;99.90
53776;DHT22;44276;49.534;6.378;2024-01-30T11:58:05;9.80;99.90
53776;DHT22;44276;49.534;6.378;2024-01-30T12:00:33;9.90;99.90
53776;DHT22;44276;49.534;6.378;2024-01-30T12:03:03;9.90;99.90
53776;DHT22;44276;49.534;6.378;2024-01-30T12:05:35;10.00;99.90
53776;DHT22;44276;49.534;6.378;2024-01-30T12:08:15;10.30;99.90
53776;DHT22;44276;49.534;6.378;2024-01-30T12:10:44;10.50;99.90
53776;DHT22;44276;49.534;6.378;2024-01-30T12:13:12;10.60;99.90
53776;DHT22;44276;49.534;6.378;2024-01-30T12:15:42;10.70;99.90
53776;DHT22;44276;49.534;6.378;2024-01-30T12:18:10;10.80;99.90
53776;DHT22;44276;49.534;6.378;2024-01-30T12:20:40;10.90;99.90
53776;DHT22;44276;49.534;6.378;2024-01-30T12:23:08;10.90;99.90
53776;DHT22;44276;49.534;6.378;2024-01-30T12:25:37;10.90;99.90
53776;DHT22;44276;49.534;6.378;2024-01-30T12:28:06;11.10;99.90
53776;DHT22;44276;49.534;6.378;2024-01-30T12:30:35;11.10;99.90
53776;DHT22;44276;49.534;6.378;2024-01-30T12:33:03;11.20;99.90
53776;DHT22;44276;49.534;6.378;2024-01-30T12:35:34;11.20;99.90
53776;DHT22;44276;49.534;6.378;2024-01-30T12:38:16;11.20;99.90
53776;DHT22;44276;49.534;6.378;2024-01-30T12:40:44;11.20;99.90
53776;DHT22;44276;49.534;6.378;2024-01-30T12:43:13;11.10;99.90
53776;DHT22;44276;49.534;6.378;2024-01-30T12:45:57;11.10;99.90
53776;DHT22;44276;49.534;6.378;2024-01-30T12:48:26;11.10;99.90
53776;DHT22;44276;49.534;6.378;2024-01-30T12:50:56;11.10;99.90
53776;DHT22;44276;49.534;6.378;2024-01-30T12:53:25;11.00;99.90
53776;DHT22;44276;49.534;6.378;2024-01-30T12:55:54;11.00;99.90
53776;DHT22;44276;49.534;6.378;2024-01-30T12:58:22;11.00;99.90
53776;DHT22;44276;49.534;6.378;2024-01-30T13:00:50;11.10;99.90
53776;DHT22;44276;49.534;6.378;2024-01-30T13:03:19;11.20;99.90
53776;DHT22;44276;49.534;6.378;2024-01-30T13:05:47;11.20;99.90
53776;DHT22;44276;49.534;6.378;2024-01-30T13:08:16;11.30;99.90
53776;DHT22;44276;49.534;6.378;2024-01-30T13:10:45;11.30;99.90
53776;DHT22;44276;49.534;6.378;2024-01-30T13:13:16;11.30;99.90
53776;DHT22;44276;49.534;6.378;2024-01-30T13:15:47;11.30;99.90
53776;DHT22;44276;49.534;6.378;2024-01-30T13:18:15;11.30;99.90
53776;DHT22;44276;49.534;6.378;2024-01-30T13:20:43;11.40;99.90
53776;DHT22;44276;49.534;6.378;2024-01-30T13:23:12;11.40;99.90
53776;DHT22;44276;49.534;6.378;2024-01-30T13:25:40;11.50;99.90
53776;DHT22;44276;49.534;6.378;2024-01-30T13:28:09;11.50;99.90
53776;DHT22;44276;49.534;6.378;2024-01-30T13:30:38;11.50;99.90
53776;DHT22;44276;49.534;6.378;2024-01-30T13:33:06;11.50;99.90
53776;DHT22;44276;49.534;6.378;2024-01-30T13:35:34;11.40;99.90
53776;DHT22;44276;49.534;6.378;2024-01-30T13:38:03;11.40;99.90
53776;DHT22;44276;49.534;6.378;2024-01-30T13:40:31;11.40;99.90
53776;DHT22;44276;49.534;6.378;2024-01-30T13:42:59;11.40;99.90
53776;DHT22;44276;49.534;6.378;2024-01-30T13:45:29;11.40;99.90
53776;DHT22;44276;49.534;6.378;2024-01-30T13:47:57;11.30;99.90
53776;DHT22;44276;49.534;6.378;2024-01-30T13:50:26;11.30;99.90
53776;DHT22;44276;49.534;6.378;2024-01-30T13:52:54;11.30;99.90
53776;DHT22;44276;49.534;6.378;2024-01-30T13:55:24;11.30;99.90
53776;DHT22;44276;49.534;6.378;2024-01-30T13:57:53;11.30;99.90
53776;DHT22;44276;49.534;6.378;2024-01-30T14:00:22;11.20;99.90
53776;DHT22;44276;49.534;6.378;2024-01-30T14:02:54;11.10;99.90
53776;DHT22;44276;49.534;6.378;2024-01-30T14:05:23;11.10;99.90
53776;DHT22;44276;49.534;6.378;2024-01-30T14:07:52;11.10;99.90
53776;DHT22;44276;49.534;6.378;2024-01-30T14:10:21;11.10;99.90
53776;DHT22;44276;49.534;6.378;2024-01-30T14:12:49;11.10;99.90
53776;DHT22;44276;49.534;6.378;2024-01-30T14:15:17;11.10;99.90
53776;DHT22;44276;49.534;6.378;2024-01-30T14:17:56;11.10;99.90
53776;DHT22;44276;49.534;6.378;2024-01-30T14:20:25;11.10;99.90
53776;DHT22;44276;49.534;6.378;2024-01-30T14:22:54;11.20;99.90
53776;DHT22;44276;49.534;6.378;2024-01-30T14:25:23;11.20;99.90
53776;DHT22;44276;49.534;6.378;2024-01-30T14:27:52;11.30;99.90
53776;DHT22;44276;49.534;6.378;2024-01-30T14:30:20;11.30;99.90
53776;DHT22;44276;49.534;6.378;2024-01-30T14:32:49;11.20;99.90
53776;DHT22;44276;49.534;6.378;2024-01-30T14:35:19;11.30;99.90
53776;DHT22;44276;49.534;6.378;2024-01-30T14:37:48;11.30;99.90
53776;DHT22;44276;49.534;6.378;2024-01-30T14:40:17;11.30;99.90
53776;DHT22;44276;49.534;6.378;2024-01-30T14:42:46;11.40;99.90
53776;DHT22;44276;49.534;6.378;2024-01-30T14:45:15;11.40;99.90
53776;DHT22;44276;49.534;6.378;2024-01-30T14:47:44;11.50;99.90
53776;DHT22;44276;49.534;6.378;2024-01-30T14:50:13;11.50;99.90
53776;DHT22;44276;49.534;6.378;2024-01-30T14:52:45;11.50;99.90
53776;DHT22;44276;49.534;6.378;2024-01-30T14:55:13;11.50;99.90
53776;DHT22;44276;49.534;6.378;2024-01-30T14:57:41;11.50;99.90
53776;DHT22;44276;49.534;6.378;2024-01-30T15:00:13;11.60;99.90
53776;DHT22;44276;49.534;6.378;2024-01-30T15:02:43;11.70;99.90
53776;DHT22;44276;49.534;6.378;2024-01-30T15:05:13;11.70;99.90
53776;DHT22;44276;49.534;6.378;2024-01-30T15:07:41;11.70;99.90
53776;DHT22;44276;49.534;6.378;2024-01-30T15:10:11;11.70;99.90
53776;DHT22;44276;49.534;6.378;2024-01-30T15:12:40;11.70;99.90
53776;DHT22;44276;49.534;6.378;2024-01-30T15:15:08;11.60;99.90
53776;DHT22;44276;49.534;6.378;2024-01-30T15:17:38;11.60;99.90
53776;DHT22;44276;49.534;6.378;2024-01-30T15:20:07;11.50;99.90
53776;DHT22;44276;49.534;6.378;2024-01-30T15:22:36;11.50;99.90
53776;DHT22;44276;49.534;6.378;2024-01-30T15:25:07;11.50;99.90
53776;DHT22;44276;49.534;6.378;2024-01-30T15:27:36;11.40;99.90
53776;DHT22;44276;49.534;6.378;2024-01-30T15:30:07;11.30;99.90
53776;DHT22;44276;49.534;6.378;2024-01-30T15:32:35;11.30;99.90
53776;DHT22;44276;49.534;6.378;2024-01-30T15:35:04;11.20;99.90
53776;DHT22;44276;49.534;6.378;2024-01-30T15:37:33;11.10;99.90
53776;DHT22;44276;49.534;6.378;2024-01-30T15:40:02;11.00;99.90
53776;DHT22;44276;49.534;6.378;2024-01-30T15:42:33;11.00;99.90
53776;DHT22;44276;49.534;6.378;2024-01-30T15:45:03;10.90;99.90
53776;DHT22;44276;49.534;6.378;2024-01-30T15:47:32;10.90;99.90
53776;DHT22;44276;49.534;6.378;2024-01-30T15:50:00;10.90;99.90